Time;durP1;ratioP1;P1;durP2;ratioP2;P2;SDS_P1;SDS_P2;PMS_P1;PMS_P2;Temp;Humidity;BMP_temperature;BMP_pressure;BME280_temperature;BME280_humidity;BME280_pressure;Samples;Min_cycle;Max_cycle;Signal;HPM_P1;HPM_P2
2022/04/22 00:01:24;;;;;;;8.63;7.83;;;11.70;99.90;;;;;;5031655;28;20429;-42
2022/04/22 00:03:50;;;;;;;9.70;8.40;;;11.60;99.90;;;;;;5030195;28;20475;-42
2022/04/22 00:06:16;;;;;;;8.30;7.50;;;11.60;99.90;;;;;;5031828;28;20512;-42
2022/04/22 00:08:42;;;;;;;7.97;7.17;;;11.60;99.90;;;;;;5032105;28;20429;-42
2022/04/22 00:13:52;;;;;;;8.10;7.20;;;11.40;99.90;;;;;;5031906;28;20277;-42
2022/04/22 00:16:18;;;;;;;7.63;6.93;;;11.50;99.90;;;;;;5031881;28;20506;-42
2022/04/22 00:18:44;;;;;;;8.20;7.40;;;11.70;99.90;;;;;;5032007;28;20433;-42
2022/04/22 00:21:10;;;;;;;8.50;7.60;;;11.50;99.90;;;;;;5029808;28;20198;-42
2022/04/22 00:23:36;;;;;;;8.40;7.60;;;11.50;99.90;;;;;;5032505;28;20456;-42
2022/04/22 00:26:02;;;;;;;10.33;7.57;;;11.40;99.90;;;;;;5032053;28;20537;-42
2022/04/22 00:28:28;;;;;;;8.97;7.60;;;11.40;99.90;;;;;;5031674;28;20190;-42
2022/04/22 00:30:54;;;;;;;8.40;7.57;;;11.30;99.90;;;;;;5029785;28;20429;-42
2022/04/22 00:33:20;;;;;;;8.87;7.77;;;11.30;99.90;;;;;;5031625;28;20779;-42
2022/04/22 00:35:45;;;;;;;10.37;9.17;;;11.40;99.90;;;;;;5031953;28;20186;-42
2022/04/22 00:38:11;;;;;;;10.80;8.40;;;11.50;99.90;;;;;;5031261;28;20205;-42
2022/04/22 00:40:38;;;;;;;9.90;8.37;;;11.40;99.90;;;;;;5023258;28;20278;-42
2022/04/22 00:43:15;;;;;;;9.50;8.47;;;11.30;99.90;;;;;;5025639;28;20464;-42
2022/04/22 00:45:41;;;;;;;8.93;8.00;;;11.50;99.90;;;;;;5031520;28;20431;-42
2022/04/22 00:48:07;;;;;;;9.10;8.13;;;11.40;99.90;;;;;;5031373;28;20421;-42
2022/04/22 00:50:32;;;;;;;9.90;8.33;;;11.30;99.90;;;;;;5030529;28;20449;-42
2022/04/22 00:52:58;;;;;;;11.03;8.43;;;11.40;99.90;;;;;;5031096;28;20194;-43
2022/04/22 00:55:24;;;;;;;9.13;8.23;;;11.30;99.90;;;;;;5026852;28;20221;-42
2022/04/22 00:57:50;;;;;;;9.37;8.23;;;11.30;99.90;;;;;;5020091;28;20226;-42
2022/04/22 01:00:16;;;;;;;9.70;8.40;;;11.40;99.90;;;;;;5022567;28;20194;-42
2022/04/22 01:02:42;;;;;;;9.03;8.13;;;11.40;99.90;;;;;;5030758;28;20815;-42
2022/04/22 01:10:38;;;;;;;10.90;8.97;;;11.30;99.90;;;;;;5025274;28;20438;-42
2022/04/22 01:13:04;;;;;;;10.10;9.00;;;11.10;99.90;;;;;;5024027;28;20471;-42
2022/04/22 01:15:30;;;;;;;11.73;9.80;;;11.10;99.90;;;;;;5029446;28;20183;-42
2022/04/22 01:17:56;;;;;;;10.80;8.83;;;11.20;99.90;;;;;;5030803;28;20429;-42
2022/04/22 01:20:22;;;;;;;11.50;9.63;;;11.20;99.90;;;;;;5028730;28;20425;-42
2022/04/22 01:22:47;;;;;;;10.30;9.30;;;11.20;99.90;;;;;;5030809;28;20178;-42
2022/04/22 01:25:13;;;;;;;11.93;9.33;;;11.20;99.90;;;;;;5042647;28;20206;-42
2022/04/22 01:27:39;;;;;;;12.07;9.93;;;11.20;99.90;;;;;;5020472;28;20198;-41
2022/04/22 01:30:06;;;;;;;12.60;9.90;;;11.30;99.90;;;;;;5029218;28;20628;-42
2022/04/22 01:32:31;;;;;;;11.20;9.90;;;11.30;99.90;;;;;;5030559;28;20430;-42
2022/04/22 01:34:57;;;;;;;12.23;10.50;;;11.40;99.90;;;;;;5030491;28;20530;-42
2022/04/22 01:37:23;;;;;;;12.03;10.80;;;11.20;99.90;;;;;;5030520;28;20186;-43
2022/04/22 01:39:49;;;;;;;11.17;9.90;;;11.10;99.90;;;;;;5029775;28;20186;-42
2022/04/22 01:42:15;;;;;;;10.80;9.63;;;11.10;99.90;;;;;;5023640;28;20441;-42
2022/04/22 01:44:40;;;;;;;15.30;11.00;;;11.10;99.90;;;;;;5029954;28;20621;-42
2022/04/22 01:47:06;;;;;;;12.63;10.40;;;11.20;99.90;;;;;;5030244;28;20213;-42
2022/04/22 01:49:32;;;;;;;11.77;10.57;;;11.00;99.90;;;;;;5030428;28;20677;-42
2022/04/22 01:51:58;;;;;;;11.30;9.23;;;11.20;99.90;;;;;;5030038;28;20428;-42
2022/04/22 01:54:24;;;;;;;11.90;10.47;;;11.20;99.90;;;;;;5030056;28;20289;-42
2022/04/22 01:56:50;;;;;;;12.30;10.73;;;11.20;99.90;;;;;;5020716;28;20195;-42
2022/04/22 01:59:16;;;;;;;14.10;11.23;;;11.10;99.90;;;;;;5029696;28;20494;-42
2022/04/22 02:01:41;;;;;;;12.97;10.73;;;11.30;99.90;;;;;;5029175;28;20525;-42
2022/04/22 02:04:07;;;;;;;11.77;10.37;;;11.30;99.90;;;;;;5028319;28;20495;-42
2022/04/22 02:06:33;;;;;;;13.07;11.10;;;11.20;99.90;;;;;;5029923;28;20269;-42
2022/04/22 02:08:58;;;;;;;15.10;11.60;;;11.10;99.90;;;;;;5030016;28;20262;-42
2022/04/22 02:11:24;;;;;;;12.00;10.70;;;11.10;99.90;;;;;;5020620;28;20283;-42
2022/04/22 02:13:50;;;;;;;15.27;10.07;;;11.20;99.90;;;;;;5025772;28;20197;-42
2022/04/22 02:16:15;;;;;;;14.50;10.97;;;11.20;99.90;;;;;;5029138;28;20194;-42
2022/04/22 02:18:42;;;;;;;14.60;11.43;;;11.10;99.90;;;;;;5029419;28;20290;-42
2022/04/22 02:21:09;;;;;;;11.53;10.33;;;11.10;99.90;;;;;;5022031;28;20267;-42
2022/04/22 02:23:35;;;;;;;13.30;11.00;;;11.00;99.90;;;;;;5023949;28;20491;-42
2022/04/22 02:26:02;;;;;;;12.00;10.37;;;11.00;99.90;;;;;;5042593;28;20446;-42
2022/04/22 02:28:35;;;;;;;16.50;12.10;;;11.00;99.90;;;;;;5023691;28;20421;-42
2022/04/22 02:31:10;;;;;;;13.80;11.10;;;10.90;99.90;;;;;;5029106;28;20436;-42
2022/04/22 02:33:40;;;;;;;15.57;11.77;;;11.00;99.90;;;;;;5029464;28;20421;-42
2022/04/22 02:36:06;;;;;;;13.67;11.20;;;10.90;99.90;;;;;;5029597;28;20465;-42
2022/04/22 02:38:33;;;;;;;16.13;11.47;;;10.80;99.90;;;;;;5029246;28;20424;-42
2022/04/22 02:46:28;;;;;;;13.83;10.93;;;10.80;99.90;;;;;;5033499;28;20421;-42
2022/04/22 02:48:59;;;;;;;17.10;12.43;;;10.80;99.90;;;;;;5049087;28;20523;-42
2022/04/22 02:51:25;;;;;;;17.77;12.20;;;10.80;99.90;;;;;;5046023;28;21060;-43
2022/04/22 02:53:52;;;;;;;15.20;12.00;;;10.80;99.90;;;;;;5048991;28;20455;-42
2022/04/22 02:56:22;;;;;;;12.43;11.10;;;10.80;99.90;;;;;;5040519;28;20932;-42
2022/04/22 02:58:48;;;;;;;14.17;11.97;;;10.70;99.90;;;;;;5024822;28;20548;-42
2022/04/22 03:01:15;;;;;;;14.93;11.53;;;10.70;99.90;;;;;;5028292;28;20425;-42
2022/04/22 03:03:43;;;;;;;14.10;11.63;;;10.80;99.90;;;;;;5028728;28;20499;-42
2022/04/22 03:06:08;;;;;;;14.73;12.23;;;10.70;99.90;;;;;;5027230;28;20951;-42
2022/04/22 03:08:34;;;;;;;14.67;12.83;;;10.70;99.90;;;;;;5028912;28;20429;-42
2022/04/22 03:11:00;;;;;;;15.80;13.63;;;10.70;99.90;;;;;;5026497;28;20190;-42
2022/04/22 03:13:26;;;;;;;16.57;12.50;;;10.60;99.90;;;;;;5019772;28;20516;-42
2022/04/22 03:15:52;;;;;;;14.67;12.27;;;10.60;99.90;;;;;;5028613;28;20284;-42
2022/04/22 03:18:19;;;;;;;13.00;11.13;;;10.70;99.90;;;;;;5027371;28;20545;-42
2022/04/22 03:20:45;;;;;;;15.33;12.33;;;10.70;99.90;;;;;;5027697;28;20428;-43
2022/04/22 03:23:10;;;;;;;16.97;12.40;;;10.50;99.90;;;;;;5028772;28;21039;-42
2022/04/22 03:25:37;;;;;;;16.43;13.00;;;10.50;99.90;;;;;;5045917;28;20204;-42
2022/04/22 03:28:05;;;;;;;15.13;12.90;;;10.60;99.90;;;;;;5021671;28;20651;-42
2022/04/22 03:30:34;;;;;;;14.33;11.97;;;10.50;99.90;;;;;;5030678;28;20424;-42
2022/04/22 03:33:01;;;;;;;16.03;12.63;;;10.60;99.90;;;;;;5032542;28;20433;-42
2022/04/22 03:35:27;;;;;;;16.50;12.83;;;10.60;99.90;;;;;;5032573;28;20921;-42
2022/04/22 03:37:54;;;;;;;16.20;13.73;;;10.60;99.90;;;;;;5032674;28;20507;-42
2022/04/22 03:40:19;;;;;;;15.57;12.50;;;10.50;99.90;;;;;;5032144;28;20429;-42
2022/04/22 03:42:45;;;;;;;14.47;11.83;;;10.60;99.90;;;;;;5021735;28;20442;-42
2022/04/22 03:45:11;;;;;;;19.30;13.87;;;10.70;99.90;;;;;;5031665;28;20236;-42
2022/04/22 03:47:38;;;;;;;18.67;14.00;;;10.60;99.90;;;;;;5032359;28;20274;-42
2022/04/22 03:50:04;;;;;;;16.60;13.27;;;10.60;99.90;;;;;;5031929;28;20940;-42
2022/04/22 03:52:30;;;;;;;16.97;13.80;;;10.70;99.90;;;;;;5032162;28;20452;-42
2022/04/22 03:54:55;;;;;;;19.37;14.90;;;10.40;99.90;;;;;;5032254;28;20456;-43
2022/04/22 04:00:07;;;;;;;19.93;14.47;;;10.30;99.90;;;;;;5030086;28;20187;-42
2022/04/22 04:02:34;;;;;;;29.00;14.57;;;10.30;99.90;;;;;;5031961;28;20433;-42
2022/04/22 04:05:00;;;;;;;20.87;14.87;;;10.60;99.90;;;;;;5031441;28;21108;-42
2022/04/22 04:07:26;;;;;;;22.93;15.20;;;10.30;99.90;;;;;;5032253;28;20433;-42
2022/04/22 04:18:04;;;;;;;18.03;13.60;;;10.30;99.90;;;;;;5020081;28;20479;-42
2022/04/22 04:23:14;;;;;;;18.20;15.27;;;10.40;99.90;;;;;;5031718;28;20218;-42
2022/04/22 04:25:40;;;;;;;22.00;15.50;;;10.30;99.90;;;;;;5049188;28;20424;-42
2022/04/22 04:28:09;;;;;;;21.13;15.40;;;10.30;99.90;;;;;;5024885;28;20195;-42
2022/04/22 04:30:39;;;;;;;19.83;15.23;;;10.30;99.90;;;;;;5030915;28;20445;-42
2022/04/22 04:33:05;;;;;;;19.13;16.00;;;10.40;99.90;;;;;;5031788;28;20429;-42
2022/04/22 04:35:31;;;;;;;21.40;16.77;;;10.50;99.90;;;;;;5031520;28;20810;-42
2022/04/22 04:37:57;;;;;;;20.13;16.67;;;10.30;99.90;;;;;;5031148;28;20425;-42
2022/04/22 04:40:23;;;;;;;20.63;17.23;;;10.40;99.90;;;;;;5030947;28;20187;-42
2022/04/22 04:42:52;;;;;;;20.20;16.30;;;10.50;99.90;;;;;;5019493;28;20545;-42
2022/04/22 04:45:18;;;;;;;20.07;16.80;;;10.30;99.90;;;;;;5021779;28;20280;-42
2022/04/22 04:47:44;;;;;;;20.83;16.00;;;10.40;99.90;;;;;;5029534;28;20428;-42
2022/04/22 04:50:11;;;;;;;20.57;16.10;;;10.40;99.90;;;;;;5030642;28;20519;-42
2022/04/22 04:52:40;;;;;;;25.07;17.17;;;10.40;99.90;;;;;;5031146;28;20843;-42
2022/04/22 04:55:09;;;;;;;21.77;17.27;;;10.50;99.90;;;;;;5031304;28;20429;-42
2022/04/22 04:57:35;;;;;;;22.27;18.37;;;10.50;99.90;;;;;;5023476;28;20533;-42
2022/04/22 05:00:02;;;;;;;23.50;18.70;;;10.40;99.90;;;;;;5028339;28;20437;-42
2022/04/22 05:02:28;;;;;;;21.93;17.00;;;10.40;99.90;;;;;;5030925;28;20476;-42
2022/04/22 05:04:54;;;;;;;25.10;18.80;;;10.40;99.90;;;;;;5029941;28;20535;-42
2022/04/22 05:07:20;;;;;;;22.30;18.80;;;10.40;99.90;;;;;;5031063;28;20232;-42
2022/04/22 05:09:46;;;;;;;21.67;18.60;;;10.40;99.90;;;;;;5030626;28;20240;-42
2022/04/22 05:12:11;;;;;;;23.10;19.17;;;10.40;99.90;;;;;;5025913;28;20877;-42
2022/04/22 05:14:37;;;;;;;22.90;18.37;;;10.50;99.90;;;;;;5030077;28;20190;-42
2022/04/22 05:17:03;;;;;;;23.10;19.00;;;10.80;99.90;;;;;;5031026;28;20191;-43
2022/04/22 05:19:29;;;;;;;25.33;19.60;;;10.80;99.90;;;;;;5017375;28;20508;-42
2022/04/22 05:21:55;;;;;;;22.77;18.53;;;10.60;99.90;;;;;;5030419;28;20281;-42
2022/04/22 05:24:21;;;;;;;22.20;18.50;;;10.70;99.90;;;;;;5037256;28;20208;-42
2022/04/22 05:26:47;;;;;;;25.63;20.27;;;10.70;99.90;;;;;;5050045;28;20490;-42
2022/04/22 05:34:42;;;;;;;24.70;19.37;;;10.80;99.90;;;;;;5030383;28;20450;-43
2022/04/22 05:37:08;;;;;;;25.00;19.93;;;10.80;99.90;;;;;;5030501;28;20432;-42
2022/04/22 05:39:34;;;;;;;24.60;19.60;;;10.80;99.90;;;;;;5028695;28;20182;-43
2022/04/22 05:42:01;;;;;;;23.03;19.80;;;11.00;99.90;;;;;;5028570;28;20435;-42
2022/04/22 05:44:27;;;;;;;23.87;19.90;;;11.10;99.90;;;;;;5022399;28;20460;-43
2022/04/22 05:46:53;;;;;;;23.50;18.87;;;11.00;99.90;;;;;;5030278;28;20672;-43
2022/04/22 05:49:19;;;;;;;24.03;19.80;;;11.00;99.90;;;;;;5029150;28;20976;-42
2022/04/22 05:51:44;;;;;;;26.23;20.00;;;10.90;99.90;;;;;;5029662;28;20591;-43
2022/04/22 05:54:10;;;;;;;23.90;20.60;;;11.20;99.90;;;;;;5030077;28;20674;-42
2022/04/22 05:56:36;;;;;;;24.23;19.53;;;11.00;99.90;;;;;;5030051;28;20190;-42
2022/04/22 05:59:03;;;;;;;24.47;19.40;;;11.00;99.90;;;;;;5017860;28;20199;-42
2022/04/22 06:01:29;;;;;;;22.40;18.37;;;11.20;99.90;;;;;;5027880;28;20943;-42
2022/04/22 06:03:55;;;;;;;22.63;18.20;;;11.10;99.90;;;;;;5026220;28;20480;-42
2022/04/22 06:06:21;;;;;;;22.97;18.80;;;11.40;99.90;;;;;;5021705;28;20468;-42
2022/04/22 06:11:32;;;;;;;22.10;17.20;;;11.10;99.90;;;;;;5015831;28;20214;-42
2022/04/22 06:13:58;;;;;;;20.90;17.60;;;11.30;99.90;;;;;;5022076;28;20480;-43
2022/04/22 06:16:24;;;;;;;17.80;15.37;;;11.20;99.90;;;;;;5028812;28;20457;-42
2022/04/22 06:18:50;;;;;;;20.70;17.17;;;11.20;99.90;;;;;;5028673;28;20657;-42
2022/04/22 06:21:15;;;;;;;18.90;16.53;;;11.20;99.90;;;;;;5028009;28;20837;-42
2022/04/22 06:23:41;;;;;;;20.13;16.50;;;11.10;99.90;;;;;;5028599;28;20206;-42
2022/04/22 06:26:07;;;;;;;20.57;16.40;;;11.20;99.90;;;;;;5029436;28;20182;-42
2022/04/22 06:28:33;;;;;;;18.80;16.70;;;11.20;99.90;;;;;;5023367;28;20508;-42
2022/04/22 06:31:00;;;;;;;19.33;15.47;;;11.30;99.90;;;;;;5030777;28;20590;-42
2022/04/22 06:33:26;;;;;;;17.83;15.63;;;11.40;99.90;;;;;;5027723;28;20421;-42
2022/04/22 06:35:52;;;;;;;16.37;14.67;;;11.40;99.90;;;;;;5019448;28;20432;-42
2022/04/22 06:38:18;;;;;;;19.97;16.20;;;11.50;99.90;;;;;;5044682;28;20789;-42
2022/04/22 06:46:16;;;;;;;16.30;14.03;;;11.80;99.90;;;;;;5028799;28;20459;-43
2022/04/22 06:48:43;;;;;;;17.27;13.87;;;11.60;99.90;;;;;;5028200;28;20432;-42
2022/04/22 06:51:10;;;;;;;15.23;13.03;;;11.70;99.90;;;;;;5027469;28;20433;-42
2022/04/22 06:53:37;;;;;;;15.70;13.93;;;12.10;99.90;;;;;;5050180;28;20451;-42
2022/04/22 06:56:06;;;;;;;14.67;13.00;;;12.50;99.90;;;;;;5040021;28;20429;-42
2022/04/22 06:58:37;;;;;;;13.30;11.90;;;12.80;99.90;;;;;;5033015;28;20452;-42
2022/04/22 07:01:03;;;;;;;13.90;11.90;;;12.80;99.90;;;;;;5025763;28;20503;-42
2022/04/22 07:03:29;;;;;;;15.83;13.50;;;12.90;99.90;;;;;;5028215;28;20602;-42
2022/04/22 07:05:55;;;;;;;13.77;12.00;;;12.80;99.90;;;;;;5027476;28;20519;-42
2022/04/22 07:08:20;;;;;;;13.77;11.80;;;12.70;99.90;;;;;;5028954;28;20218;-43
2022/04/22 07:10:49;;;;;;;13.27;11.87;;;12.80;99.90;;;;;;5043516;28;20435;-42
2022/04/22 07:13:18;;;;;;;13.87;12.47;;;12.90;99.90;;;;;;5036454;28;20182;-43
2022/04/22 07:15:46;;;;;;;12.30;11.00;;;13.10;99.90;;;;;;5028379;28;20441;-43
2022/04/22 07:18:13;;;;;;;12.23;10.70;;;13.30;99.90;;;;;;5028184;28;20420;-43
2022/04/22 07:20:39;;;;;;;13.30;11.10;;;13.40;99.90;;;;;;5027386;28;20777;-42
2022/04/22 07:23:05;;;;;;;13.73;11.63;;;13.40;99.90;;;;;;5028351;28;20508;-43
2022/04/22 07:25:31;;;;;;;16.23;12.37;;;13.40;99.90;;;;;;5044400;28;20923;-42
2022/04/22 07:27:58;;;;;;;15.90;12.13;;;13.30;99.90;;;;;;5041258;28;20533;-43
2022/04/22 07:30:25;;;;;;;14.47;12.10;;;13.20;99.90;;;;;;5022771;28;20185;-43
2022/04/22 07:32:51;;;;;;;12.70;11.40;;;13.10;99.90;;;;;;5026583;28;20932;-43
2022/04/22 07:35:18;;;;;;;14.93;12.03;;;13.00;99.90;;;;;;5028158;28;20866;-42
2022/04/22 07:37:46;;;;;;;14.73;12.40;;;12.90;99.90;;;;;;5028095;28;20850;-43
2022/04/22 07:40:13;;;;;;;15.77;12.67;;;12.90;99.90;;;;;;5027582;28;20454;-43
2022/04/22 07:46:46;;;;;;;14.30;11.50;;;13.00;99.90;;;;;;5027499;28;20429;-42
2022/04/22 07:48:14;;;;;;;13.67;12.37;;;13.00;99.90;;;;;;5027800;28;20429;-42
2022/04/22 07:50:41;;;;;;;13.97;11.87;;;13.20;99.90;;;;;;5036928;28;20443;-43
2022/04/22 07:53:08;;;;;;;13.60;12.20;;;13.20;99.90;;;;;;5035501;28;20435;-43
2022/04/22 07:55:33;;;;;;;14.30;11.40;;;13.20;99.90;;;;;;5047934;28;20434;-43
2022/04/22 07:57:59;;;;;;;13.77;11.70;;;13.10;99.90;;;;;;5043638;28;20448;-43
2022/04/22 08:00:26;;;;;;;13.30;11.83;;;13.10;99.90;;;;;;5019931;28;20202;-42
2022/04/22 08:02:51;;;;;;;12.70;11.50;;;13.10;99.90;;;;;;5027784;28;20200;-43
2022/04/22 08:05:17;;;;;;;14.93;12.83;;;13.20;99.90;;;;;;5026774;28;20835;-43
2022/04/22 08:07:43;;;;;;;14.90;13.40;;;13.20;99.90;;;;;;5027989;28;20229;-42
2022/04/22 08:10:09;;;;;;;13.93;12.20;;;13.30;99.90;;;;;;5026995;28;20186;-43
2022/04/22 08:12:34;;;;;;;13.87;12.43;;;13.40;99.90;;;;;;5028140;28;20202;-43
2022/04/22 08:15:03;;;;;;;13.93;12.17;;;13.60;99.90;;;;;;5022598;28;20504;-43
2022/04/22 08:17:36;;;;;;;20.60;12.53;;;13.70;99.90;;;;;;5030056;28;20585;-42
2022/04/22 08:20:04;;;;;;;12.97;11.53;;;13.80;99.90;;;;;;5030463;28;20468;-43
2022/04/22 08:22:30;;;;;;;13.10;11.80;;;13.80;99.90;;;;;;5031313;28;20495;-43
2022/04/22 08:24:56;;;;;;;13.50;12.00;;;13.70;99.90;;;;;;5042801;28;20870;-43
2022/04/22 08:27:22;;;;;;;14.03;12.10;;;13.70;99.90;;;;;;5050924;28;20672;-43
2022/04/22 08:29:47;;;;;;;15.83;12.60;;;13.70;99.90;;;;;;5019501;28;20448;-43
2022/04/22 08:32:13;;;;;;;12.63;10.77;;;13.70;99.90;;;;;;5030525;28;20433;-43
2022/04/22 08:34:39;;;;;;;12.83;11.53;;;13.80;99.90;;;;;;5030952;28;20194;-42
2022/04/22 08:37:04;;;;;;;13.27;10.63;;;13.90;99.90;;;;;;5030966;28;20199;-43
2022/04/22 08:39:30;;;;;;;13.13;11.83;;;13.90;99.90;;;;;;5030927;28;20203;-42
2022/04/22 08:42:00;;;;;;;13.10;11.80;;;14.00;99.90;;;;;;5030018;28;20316;-42
2022/04/22 08:44:27;;;;;;;13.60;12.30;;;14.00;99.90;;;;;;5021412;28;20229;-42
2022/04/22 08:52:23;;;;;;;14.40;12.70;;;13.90;99.90;;;;;;5030972;28;20421;-42
2022/04/22 08:54:52;;;;;;;14.10;12.03;;;13.90;99.90;;;;;;5030675;28;20437;-43
2022/04/22 08:57:22;;;;;;;15.07;13.27;;;13.90;99.90;;;;;;5030539;28;21098;-43
2022/04/22 08:59:49;;;;;;;14.40;13.00;;;13.90;99.90;;;;;;5018826;28;20448;-42
2022/04/22 09:02:19;;;;;;;17.70;13.63;;;13.80;99.90;;;;;;5030101;28;20421;-43
2022/04/22 09:04:46;;;;;;;15.57;13.97;;;13.70;99.90;;;;;;5029110;28;20484;-42
2022/04/22 09:07:18;;;;;;;14.97;12.83;;;13.60;99.90;;;;;;5030732;28;20433;-43
2022/04/22 09:09:50;;;;;;;14.57;13.07;;;13.70;99.90;;;;;;5029664;28;20425;-43
2022/04/22 09:12:20;;;;;;;17.27;15.47;;;13.70;99.90;;;;;;5030281;28;20459;-43
2022/04/22 09:14:48;;;;;;;16.43;14.67;;;13.70;99.90;;;;;;5018903;28;20529;-43
2022/04/22 09:17:22;;;;;;;16.10;14.60;;;13.80;99.90;;;;;;5029999;28;20417;-43
2022/04/22 09:19:47;;;;;;;16.73;15.13;;;13.80;99.90;;;;;;5029529;28;20424;-43
2022/04/22 09:22:27;;;;;;;16.90;15.00;;;13.80;99.90;;;;;;5030385;28;20491;-43
2022/04/22 09:24:59;;;;;;;16.40;14.80;;;13.90;99.90;;;;;;5040854;28;20212;-42
2022/04/22 09:27:36;;;;;;;17.93;16.13;;;13.90;99.90;;;;;;5049799;28;20986;-43
2022/04/22 09:30:05;;;;;;;16.90;15.20;;;13.90;99.90;;;;;;5026870;28;20956;-43
2022/04/22 09:32:32;;;;;;;17.23;15.43;;;14.00;99.90;;;;;;5026924;28;20425;-43
2022/04/22 09:35:07;;;;;;;14.20;12.90;;;14.00;99.90;;;;;;5030178;28;20448;-42
2022/04/22 09:43:01;;;;;;;13.40;12.00;;;14.00;99.90;;;;;;5029872;28;20792;-43
2022/04/22 09:45:38;;;;;;;14.00;12.53;;;13.90;99.90;;;;;;5018869;28;20476;-42
2022/04/22 09:48:17;;;;;;;13.97;12.50;;;13.90;99.90;;;;;;5027306;28;20190;-43
2022/04/22 09:50:54;;;;;;;12.90;11.50;;;13.90;99.90;;;;;;5029272;28;21021;-42
2022/04/22 09:53:33;;;;;;;14.67;10.87;;;13.90;99.90;;;;;;5029704;28;20417;-42
2022/04/22 09:56:09;;;;;;;11.47;10.27;;;14.00;99.90;;;;;;5029638;28;20417;-43
2022/04/22 09:58:35;;;;;;;11.60;10.50;;;14.00;99.90;;;;;;5027560;28;20432;-43
2022/04/22 10:01:04;;;;;;;11.20;10.00;;;14.00;99.90;;;;;;5022178;28;20421;-42
2022/04/22 10:03:32;;;;;;;11.40;10.27;;;14.00;99.90;;;;;;5029004;28;20471;-42
2022/04/22 10:05:58;;;;;;;11.60;9.90;;;14.10;99.90;;;;;;5028580;28;20951;-42
2022/04/22 10:08:25;;;;;;;10.57;9.47;;;14.10;99.90;;;;;;5029470;28;20429;-43
2022/04/22 10:10:53;;;;;;;11.03;9.70;;;14.10;99.90;;;;;;5028304;28;20947;-42
2022/04/22 10:13:21;;;;;;;10.53;8.90;;;14.10;99.90;;;;;;5029252;28;20540;-43
2022/04/22 10:15:48;;;;;;;10.77;9.67;;;14.10;99.90;;;;;;5020747;28;20421;-42
2022/04/22 10:18:15;;;;;;;10.97;9.83;;;14.10;99.90;;;;;;5028888;28;20417;-43
2022/04/22 10:20:43;;;;;;;10.20;9.20;;;14.10;99.90;;;;;;5026918;28;20425;-43
2022/04/22 10:23:09;;;;;;;10.27;9.27;;;14.10;99.90;;;;;;5029055;28;20467;-42
2022/04/22 10:25:35;;;;;;;9.90;9.00;;;14.10;99.90;;;;;;5045546;28;20791;-43
2022/04/22 10:28:05;;;;;;;9.80;8.80;;;14.20;99.90;;;;;;5048929;28;20776;-42
2022/04/22 10:30:31;;;;;;;9.53;8.57;;;14.30;99.90;;;;;;5022312;28;20436;-42
2022/04/22 10:32:58;;;;;;;8.87;7.97;;;14.50;99.90;;;;;;5028815;28;20567;-43
2022/04/22 10:35:24;;;;;;;8.97;7.80;;;14.60;99.90;;;;;;5032749;28;20432;-42
2022/04/22 10:37:52;;;;;;;8.77;7.97;;;14.80;99.90;;;;;;5044132;28;20433;-43
2022/04/22 10:40:22;;;;;;;9.60;8.60;;;14.80;99.90;;;;;;5045624;28;20971;-42
2022/04/22 10:42:50;;;;;;;12.33;8.87;;;14.80;99.90;;;;;;5048624;28;20439;-43
2022/04/22 10:48:25;;;;;;;10.63;8.50;;;14.80;99.90;;;;;;5026237;28;20421;-43
2022/04/22 10:50:59;;;;;;;9.97;8.97;;;14.70;99.90;;;;;;5027992;28;20451;-43
2022/04/22 10:53:29;;;;;;;12.60;8.30;;;14.70;99.90;;;;;;5028497;28;20875;-42
2022/04/22 10:56:26;;;;;;;10.90;8.30;;;14.70;99.90;;;;;;5028764;28;20425;-42
2022/04/22 10:59:14;;;;;;;10.03;9.03;;;14.60;99.90;;;;;;5028343;28;20441;-43
2022/04/22 11:01:40;;;;;;;8.80;8.00;;;14.60;99.90;;;;;;5016092;28;20472;-42
2022/04/22 11:04:20;;;;;;;9.37;8.47;;;14.70;99.90;;;;;;5027405;28;20488;-43
2022/04/22 11:06:46;;;;;;;9.33;8.33;;;14.70;99.90;;;;;;5028696;28;20795;-43
2022/04/22 11:09:30;;;;;;;12.50;10.40;;;14.70;99.90;;;;;;5028046;28;20429;-43
2022/04/22 11:11:57;;;;;;;14.23;11.07;;;14.80;99.90;;;;;;5026813;28;20786;-42
2022/04/22 11:14:28;;;;;;;13.63;12.23;;;15.00;99.90;;;;;;5025371;28;20424;-42
2022/04/22 11:16:55;;;;;;;14.57;13.00;;;15.00;99.90;;;;;;5022127;28;20504;-43
2022/04/22 11:19:21;;;;;;;12.67;11.33;;;15.00;99.90;;;;;;5028075;28;20490;-42
2022/04/22 11:21:55;;;;;;;12.77;11.50;;;15.10;99.90;;;;;;5027693;28;20508;-43
2022/04/22 11:24:26;;;;;;;13.30;12.00;;;15.20;99.90;;;;;;5034792;28;20227;-43
2022/04/22 11:26:53;;;;;;;16.80;12.00;;;15.30;99.90;;;;;;5048222;28;20432;-43
2022/04/22 11:29:19;;;;;;;12.90;11.57;;;15.40;99.90;;;;;;5045037;28;20901;-43
2022/04/22 11:32:07;;;;;;;12.50;11.30;;;15.40;99.90;;;;;;5017246;28;20433;-43
2022/04/22 11:35:14;;;;;;;13.13;11.57;;;15.50;99.90;;;;;;5022005;28;21424;-42
2022/04/22 11:37:40;;;;;;;13.20;11.70;;;15.50;99.90;;;;;;5017723;28;20947;-42
2022/04/22 11:40:08;;;;;;;14.57;13.07;;;15.60;99.90;;;;;;5027123;28;21210;-42
2022/04/22 11:42:43;;;;;;;13.20;11.90;;;15.60;99.90;;;;;;5027949;28;20487;-42
2022/04/22 11:45:12;;;;;;;13.80;11.40;;;15.60;99.90;;;;;;5023244;28;20469;-42
2022/04/22 11:47:38;;;;;;;13.80;11.83;;;15.60;99.90;;;;;;5023585;28;20461;-43
2022/04/22 11:50:06;;;;;;;14.07;12.57;;;15.50;99.90;;;;;;5029734;28;20472;-43
2022/04/22 11:52:31;;;;;;;12.80;10.93;;;15.50;99.90;;;;;;5031964;28;20417;-43
2022/04/22 11:55:00;;;;;;;15.37;11.10;;;15.40;99.90;;;;;;5031697;28;21004;-43
2022/04/22 11:57:26;;;;;;;12.07;10.87;;;15.30;99.90;;;;;;5030211;28;20230;-43
2022/04/22 12:05:33;;;;;;;11.33;10.13;;;15.20;99.90;;;;;;5026098;28;20432;-42
2022/04/22 12:08:07;;;;;;;12.90;11.50;;;15.30;99.90;;;;;;5031180;28;21115;-43
2022/04/22 12:10:33;;;;;;;12.07;10.10;;;15.40;99.90;;;;;;5030894;28;20440;-42
2022/04/22 12:13:04;;;;;;;12.60;10.40;;;15.40;99.90;;;;;;5031726;28;20512;-43
2022/04/22 12:15:30;;;;;;;11.93;10.53;;;15.50;99.90;;;;;;5021709;28;20513;-43
2022/04/22 12:17:57;;;;;;;11.50;10.30;;;15.70;99.90;;;;;;5031372;28;20482;-43
2022/04/22 12:20:25;;;;;;;11.73;10.63;;;15.80;99.90;;;;;;5030332;28;20429;-42
2022/04/22 12:22:52;;;;;;;14.70;11.43;;;16.10;99.90;;;;;;5031431;28;20838;-43
2022/04/22 12:25:20;;;;;;;12.70;11.43;;;16.30;99.90;;;;;;5045696;28;20499;-43
2022/04/22 12:28:07;;;;;;;13.90;11.10;;;16.40;99.90;;;;;;5050184;28;20436;-43
2022/04/22 12:30:40;;;;;;;13.20;11.87;;;16.40;99.90;;;;;;5034478;28;20500;-43
2022/04/22 12:33:15;;;;;;;14.03;11.73;;;16.40;99.90;;;;;;5029882;28;20961;-42
2022/04/22 12:35:42;;;;;;;12.23;10.93;;;16.40;99.90;;;;;;5026873;28;20775;-42
2022/04/22 12:38:12;;;;;;;12.73;10.80;;;16.40;99.90;;;;;;5030909;28;20475;-42
2022/04/22 12:40:49;;;;;;;12.67;11.33;;;16.40;99.90;;;;;;5030356;28;21090;-43
2022/04/22 12:43:45;;;;;;;11.17;9.87;;;16.40;99.90;;;;;;5030664;28;20424;-42
2022/04/22 12:52:09;;;;;;;10.63;9.40;;;16.50;99.90;;;;;;5018752;28;20820;-43
2022/04/22 12:54:35;;;;;;;9.70;8.80;;;16.60;99.90;;;;;;5029397;28;20424;-43
2022/04/22 12:57:01;;;;;;;11.43;8.83;;;16.60;99.90;;;;;;5030694;28;20473;-42
2022/04/22 12:59:49;;;;;;;9.97;8.97;;;16.70;99.90;;;;;;5029632;28;20468;-43
2022/04/22 13:02:15;;;;;;;10.37;9.30;;;16.70;99.90;;;;;;5022111;28;20456;-43
2022/04/22 13:04:59;;;;;;;11.67;10.17;;;16.70;99.90;;;;;;5027416;28;20477;-43
2022/04/22 13:07:47;;;;;;;12.80;10.30;;;16.50;99.90;;;;;;5030305;28;20458;-43
2022/04/22 13:10:14;;;;;;;11.80;10.60;;;16.40;99.90;;;;;;5029306;28;20428;-43
2022/04/22 13:12:41;;;;;;;12.53;11.20;;;16.30;99.90;;;;;;5030463;28;20432;-43
2022/04/22 13:15:18;;;;;;;12.40;11.20;;;16.20;99.90;;;;;;5027451;28;20895;-43
2022/04/22 13:17:45;;;;;;;13.30;11.23;;;16.10;99.90;;;;;;5021133;28;20714;-43
2022/04/22 13:20:13;;;;;;;14.77;12.43;;;16.10;99.90;;;;;;5029466;28;20520;-43
2022/04/22 13:22:40;;;;;;;13.83;11.97;;;16.10;99.90;;;;;;5028348;28;21148;-42
2022/04/22 13:25:09;;;;;;;14.80;11.90;;;16.20;99.90;;;;;;5041706;28;20555;-43
2022/04/22 13:27:35;;;;;;;19.67;14.67;;;16.20;99.90;;;;;;5050292;28;21017;-43
2022/04/22 13:30:00;;;;;;;12.10;10.80;;;16.20;99.90;;;;;;5046925;28;20435;-43
2022/04/22 13:32:26;;;;;;;14.40;12.30;;;16.20;99.90;;;;;;5017575;28;20421;-43
2022/04/22 13:34:52;;;;;;;13.97;12.17;;;16.20;99.90;;;;;;5030110;28;20657;-43
2022/04/22 13:37:17;;;;;;;13.77;11.37;;;16.30;99.90;;;;;;5029567;28;20187;-43
2022/04/22 13:39:43;;;;;;;12.10;10.80;;;16.30;99.90;;;;;;5029691;28;20652;-43
2022/04/22 13:42:09;;;;;;;12.93;11.27;;;16.30;99.90;;;;;;5029806;28;20191;-42
2022/04/22 13:52:48;;;;;;;12.07;10.80;;;16.30;99.30;;;;;;5029408;28;20421;-43